createdAt,value
2018-04-08T00:00:43.485Z,99696.97
2018-04-08T00:03:09.083Z,99697.80
2018-04-08T00:05:34.640Z,99694.72
2018-04-08T00:08:01.007Z,99697.61
2018-04-08T00:10:26.565Z,99691.41
2018-04-08T00:12:52.127Z,99690.94
2018-04-08T00:15:18.068Z,99691.33
2018-04-08T00:17:43.611Z,99687.22
2018-04-08T00:20:09.161Z,99687.14
2018-04-08T00:22:34.960Z,99683.27
2018-04-08T00:25:00.498Z,99692.20
2018-04-08T00:27:26.039Z,99680.52
2018-04-08T00:29:51.830Z,99678.47
2018-04-08T00:32:17.433Z,99674.20
2018-04-08T00:34:42.972Z,99674.20
2018-04-08T00:37:08.702Z,99678.62
2018-04-08T00:39:34.244Z,99666.78
2018-04-08T00:41:59.818Z,99676.94
2018-04-08T00:44:25.672Z,99666.73
2018-04-08T00:46:51.234Z,99661.86
2018-04-08T00:49:16.874Z,99659.66
2018-04-08T00:51:42.713Z,99662.28
2018-04-08T00:54:30.043Z,99662.25
2018-04-08T00:56:55.935Z,99656.00
2018-04-08T00:59:21.488Z,99664.59
2018-04-08T01:01:47.051Z,99662.53
2018-04-08T01:04:12.810Z,99663.05
2018-04-08T01:06:38.344Z,99654.09
2018-04-08T01:09:04.779Z,99665.29
2018-04-08T01:11:30.511Z,99653.17
2018-04-08T01:13:56.052Z,99652.73
2018-04-08T01:16:21.608Z,99653.08
2018-04-08T01:18:47.490Z,99662.46
2018-04-08T01:21:13.073Z,99664.49
2018-04-08T01:23:38.610Z,99655.53
2018-04-08T01:26:04.370Z,99657.22
2018-04-08T01:28:29.943Z,99653.68
2018-04-08T01:30:55.551Z,99649.55
2018-04-08T01:33:21.369Z,99650.54
2018-04-08T01:35:46.947Z,99648.50
2018-04-08T01:38:12.502Z,99653.28
2018-04-08T01:40:38.228Z,99650.81
2018-04-08T01:43:03.771Z,99652.00
2018-04-08T01:45:29.382Z,99661.95
2018-04-08T01:47:55.064Z,99654.44
2018-04-08T01:50:20.610Z,99651.30
2018-04-08T01:52:46.222Z,99650.50
2018-04-08T01:55:12.040Z,99649.98
2018-04-08T01:57:37.591Z,99650.09
2018-04-08T02:00:03.128Z,99645.65
2018-04-08T02:02:28.858Z,99651.91
2018-04-08T02:04:54.412Z,99651.30
2018-04-08T02:07:19.949Z,99656.58
2018-04-08T02:09:45.749Z,99654.16
2018-04-08T02:12:11.790Z,99652.27
2018-04-08T02:14:37.365Z,99645.13
2018-04-08T02:17:03.170Z,99646.08
2018-04-08T02:19:28.750Z,99652.89
2018-04-08T02:21:54.326Z,99650.51
2018-04-08T02:24:20.114Z,99652.97
2018-04-08T02:26:45.663Z,99657.14
2018-04-08T02:29:11.198Z,99660.95
2018-04-08T02:31:37.292Z,99665.40
2018-04-08T02:34:02.830Z,99660.52
2018-04-08T02:36:28.389Z,99658.36
2018-04-08T02:38:54.171Z,99654.52
2018-04-08T02:41:19.727Z,99650.06
2018-04-08T02:43:45.270Z,99660.09
2018-04-08T02:46:11.147Z,99654.75
2018-04-08T02:48:36.706Z,99664.80
2018-04-08T02:51:02.252Z,99658.80
2018-04-08T02:53:28.034Z,99664.38
2018-04-08T02:55:53.570Z,99655.58
2018-04-08T02:58:19.146Z,99659.73
2018-04-08T03:00:45.079Z,99655.41
2018-04-08T03:03:10.619Z,99654.11
2018-04-08T03:05:36.206Z,99653.66
2018-04-08T03:08:01.907Z,99652.60
2018-04-08T03:10:27.452Z,99649.95
2018-04-08T03:12:53.019Z,99652.84
2018-04-08T03:15:19.693Z,99652.84
2018-04-08T03:17:45.298Z,99644.92
2018-04-08T03:20:10.847Z,99649.77
2018-04-08T03:22:36.671Z,99642.30
2018-04-08T03:25:02.220Z,99646.62
2018-04-08T03:27:27.835Z,99635.28
2018-04-08T03:29:53.566Z,99635.19
2018-04-08T03:32:19.109Z,99638.45
2018-04-08T03:34:44.664Z,99628.59
2018-04-08T03:37:10.521Z,99630.72
2018-04-08T03:39:36.106Z,99626.48
2018-04-08T03:42:01.671Z,99633.35
2018-04-08T03:44:27.515Z,99632.90
2018-04-08T03:46:53.051Z,99635.76
2018-04-08T03:49:18.609Z,99637.55
2018-04-08T03:51:44.400Z,99635.34
2018-04-08T03:54:09.937Z,99636.93
2018-04-08T03:56:35.503Z,99640.73
2018-04-08T03:59:01.357Z,99637.38
2018-04-08T04:01:26.985Z,99646.09
2018-04-08T04:03:52.558Z,99649.42
2018-04-08T04:06:18.357Z,99644.38
2018-04-08T04:08:43.941Z,99641.42
2018-04-08T04:11:09.515Z,99636.25
2018-04-08T04:13:35.344Z,99635.66
2018-04-08T04:16:00.901Z,99637.20
2018-04-08T04:19:04.914Z,99634.42
2018-04-08T04:22:08.053Z,99629.66
2018-04-08T04:25:10.827Z,99635.36
2018-04-08T04:27:36.373Z,99640.88
2018-04-08T04:30:01.915Z,99635.63
2018-04-08T04:32:27.686Z,99638.59
2018-04-08T04:34:53.262Z,99638.59
2018-04-08T04:37:18.821Z,99634.30
2018-04-08T04:39:45.124Z,99641.30
2018-04-08T04:42:10.689Z,99642.73
2018-04-08T04:44:36.254Z,99639.23
2018-04-08T04:47:02.036Z,99645.94
2018-04-08T04:49:27.649Z,99641.59
2018-04-08T04:51:53.241Z,99638.62
2018-04-08T04:54:19.011Z,99638.44
2018-04-08T04:56:44.591Z,99640.69
2018-04-08T04:59:10.137Z,99645.33
2018-04-08T05:01:35.998Z,99642.02
2018-04-08T05:04:01.552Z,99642.97
2018-04-08T05:06:27.077Z,99637.98
2018-04-08T05:08:52.782Z,99639.42
2018-04-08T05:11:18.371Z,99633.19
2018-04-08T05:13:43.929Z,99639.38
2018-04-08T05:16:09.751Z,99633.10
2018-04-08T05:18:35.417Z,99636.33
2018-04-08T05:21:01.711Z,99639.12
2018-04-08T05:23:27.488Z,99634.92
2018-04-08T05:25:53.035Z,99634.05
2018-04-08T05:28:18.614Z,99635.37
2018-04-08T05:30:44.372Z,99640.47
2018-04-08T05:33:09.952Z,99640.75
2018-04-08T05:35:35.516Z,99641.46
2018-04-08T05:38:01.434Z,99645.02
2018-04-08T05:40:28.061Z,99652.66
2018-04-08T05:42:53.606Z,99655.20
2018-04-08T05:45:19.441Z,99646.17
2018-04-08T05:47:45.064Z,99651.08
2018-04-08T05:50:10.828Z,99652.16
2018-04-08T05:52:36.606Z,99651.88
2018-04-08T05:55:02.143Z,99654.49
2018-04-08T05:57:27.694Z,99648.95
2018-04-08T05:59:53.476Z,99644.30
2018-04-08T06:02:19.022Z,99650.80
2018-04-08T06:04:44.595Z,99650.20
2018-04-08T06:07:10.388Z,99650.52
2018-04-08T06:09:35.947Z,99644.02
2018-04-08T06:12:01.498Z,99653.95
2018-04-08T06:14:27.240Z,99656.44
2018-04-08T06:16:52.854Z,99664.13
2018-04-08T06:19:18.419Z,99660.70
2018-04-08T06:21:44.868Z,99653.24
2018-04-08T06:24:11.013Z,99661.05
2018-04-08T06:26:36.571Z,99656.54
2018-04-08T06:29:02.314Z,99657.09
2018-04-08T06:31:27.857Z,99663.13
2018-04-08T06:33:53.398Z,99656.38
2018-04-08T06:36:19.309Z,99657.98
2018-04-08T06:38:44.842Z,99655.71
2018-04-08T06:41:10.401Z,99653.88
2018-04-08T06:43:36.200Z,99653.88
2018-04-08T06:46:01.732Z,99658.64
2018-04-08T06:48:27.277Z,99660.68
2018-04-08T06:50:53.124Z,99658.28
2018-04-08T06:53:18.695Z,99662.11
2018-04-08T06:55:44.310Z,99661.45
2018-04-08T06:58:10.231Z,99660.23
2018-04-08T07:00:35.784Z,99661.58
2018-04-08T07:03:01.342Z,99663.14
2018-04-08T07:05:27.374Z,99667.91
2018-04-08T07:07:52.947Z,99668.36
2018-04-08T07:10:18.496Z,99676.41
2018-04-08T07:12:44.312Z,99663.65
2018-04-08T07:15:09.925Z,99661.77
2018-04-08T07:17:35.473Z,99667.67
2018-04-08T07:20:01.704Z,99663.45
2018-04-08T07:22:27.246Z,99660.52
2018-04-08T07:24:52.844Z,99657.91
2018-04-08T07:27:18.987Z,99650.52
2018-04-08T07:29:44.590Z,99660.42
2018-04-08T07:32:10.151Z,99662.80
2018-04-08T07:34:35.978Z,99659.73
2018-04-08T07:37:01.524Z,99663.82
2018-04-08T07:39:27.100Z,99673.03
2018-04-08T07:41:52.850Z,99673.03
2018-04-08T07:44:18.415Z,99667.68
2018-04-08T07:46:43.970Z,99660.45
2018-04-08T07:49:09.674Z,99655.50
2018-04-08T07:51:35.220Z,99654.91
2018-04-08T07:54:00.921Z,99653.92
2018-04-08T07:56:26.868Z,99654.67
2018-04-08T07:58:52.442Z,99654.23
2018-04-08T08:01:18.024Z,99652.92
2018-04-08T08:03:43.888Z,99652.21
2018-04-08T08:06:09.476Z,99660.77
2018-04-08T08:08:35.024Z,99657.10
2018-04-08T08:11:00.935Z,99662.25
2018-04-08T08:13:26.479Z,99650.22
2018-04-08T08:15:52.044Z,99648.47
2018-04-08T08:18:17.804Z,99645.62
2018-04-08T08:20:43.384Z,99656.03
2018-04-08T08:23:09.039Z,99655.64
2018-04-08T08:25:35.265Z,99643.22
2018-04-08T08:28:01.274Z,99652.39
2018-04-08T08:30:27.085Z,99641.02
2018-04-08T08:32:52.959Z,99636.52
2018-04-08T08:35:18.728Z,99639.66
2018-04-08T08:37:44.465Z,99638.22
2018-04-08T08:40:10.236Z,99643.77
2018-04-08T08:42:35.804Z,99643.84
2018-04-08T08:45:01.416Z,99634.50
2018-04-08T08:47:27.188Z,99639.25
2018-04-08T08:49:52.771Z,99639.56
2018-04-08T08:52:18.386Z,99642.76
2018-04-08T08:54:44.411Z,99648.28
2018-04-08T08:57:09.998Z,99633.48
2018-04-08T08:59:35.601Z,99632.73
2018-04-08T09:02:01.380Z,99629.20
2018-04-08T09:04:26.949Z,99626.44
2018-04-08T09:06:52.508Z,99627.64
2018-04-08T09:09:18.325Z,99628.05
2018-04-08T09:11:43.886Z,99618.98
2018-04-08T09:14:09.427Z,99621.80
2018-04-08T09:16:35.283Z,99623.37
2018-04-08T09:19:00.815Z,99627.28
2018-04-08T09:21:44.686Z,99621.02
2018-04-08T09:26:01.284Z,99617.01
2018-04-08T09:28:27.508Z,99615.88
2018-04-08T09:30:53.319Z,99609.72
2018-04-08T09:33:18.941Z,99611.69
2018-04-08T09:35:44.682Z,99600.42
2018-04-08T09:38:10.218Z,99604.75
2018-04-08T09:40:35.770Z,99601.59
2018-04-08T09:43:01.546Z,99603.55
2018-04-08T09:45:27.090Z,99604.34
2018-04-08T09:47:52.681Z,99608.31
2018-04-08T09:50:18.557Z,99602.75
2018-04-08T09:52:44.097Z,99602.63
2018-04-08T09:55:09.740Z,99596.63
2018-04-08T09:57:41.134Z,99590.16
2018-04-08T10:00:06.735Z,99597.98
2018-04-08T10:02:32.285Z,99590.55
2018-04-08T10:04:58.037Z,99589.75
2018-04-08T10:07:23.678Z,99592.09
2018-04-08T10:09:49.248Z,99582.31
2018-04-08T10:12:15.215Z,99573.61
2018-04-08T10:14:41.171Z,99568.43
2018-04-08T10:17:06.790Z,99573.84
2018-04-08T10:19:33.577Z,99561.64
2018-04-08T10:21:59.096Z,99560.91
2018-04-08T10:24:24.637Z,99555.14
2018-04-08T10:26:50.495Z,99560.59
2018-04-08T10:29:16.323Z,99549.83
2018-04-08T10:31:42.033Z,99549.58
2018-04-08T10:34:07.740Z,99546.06
2018-04-08T10:36:33.301Z,99544.19
2018-04-08T10:38:58.851Z,99540.12
2018-04-08T10:41:24.593Z,99535.31
2018-04-08T10:43:50.205Z,99525.48
2018-04-08T10:46:15.807Z,99531.72
2018-04-08T10:48:41.780Z,99534.06
2018-04-08T10:51:07.453Z,99530.95
2018-04-08T10:53:33.007Z,99521.52
2018-04-08T10:55:58.859Z,99512.73
2018-04-08T10:58:24.468Z,99519.48
2018-04-08T11:00:50.022Z,99516.50
2018-04-08T11:03:15.951Z,99515.73
2018-04-08T11:05:41.509Z,99506.98
2018-04-08T11:08:07.073Z,99502.16
2018-04-08T11:10:32.828Z,99492.19
2018-04-08T11:12:58.377Z,99488.38
2018-04-08T11:15:23.936Z,99498.55
2018-04-08T11:17:49.766Z,99496.15
2018-04-08T11:20:15.308Z,99496.64
2018-04-08T11:22:40.859Z,99496.38
2018-04-08T11:25:06.597Z,99488.13
2018-04-08T11:27:32.201Z,99480.06
2018-04-08T11:29:57.819Z,99481.36
2018-04-08T11:32:23.723Z,99475.89
2018-04-08T11:34:49.458Z,99472.84
2018-04-08T11:37:15.007Z,99471.91
2018-04-08T11:39:40.721Z,99473.64
2018-04-08T11:42:06.398Z,99473.21
2018-04-08T11:44:31.952Z,99465.16
2018-04-08T11:46:57.669Z,99466.97
2018-04-08T11:49:23.220Z,99457.95
2018-04-08T11:51:48.762Z,99461.25
2018-04-08T11:54:14.474Z,99451.47
2018-04-08T11:56:40.076Z,99447.14
2018-04-08T11:59:05.652Z,99437.00
2018-04-08T12:01:31.325Z,99439.58
2018-04-08T12:03:56.862Z,99436.08
2018-04-08T12:06:22.408Z,99431.38
2018-04-08T12:08:48.227Z,99429.80
2018-04-08T12:11:13.779Z,99432.78
2018-04-08T12:13:39.338Z,99430.20
2018-04-08T12:16:05.212Z,99431.03
2018-04-08T12:18:30.770Z,99421.58
2018-04-08T12:20:56.364Z,99421.42
2018-04-08T12:23:22.056Z,99419.34
2018-04-08T12:25:47.600Z,99421.13
2018-04-08T12:28:13.158Z,99418.19
2018-04-08T12:30:38.945Z,99418.36
2018-04-08T12:33:04.504Z,99416.78
2018-04-08T12:35:30.377Z,99403.64
2018-04-08T12:37:56.339Z,99407.42
2018-04-08T12:40:21.889Z,99402.88
2018-04-08T12:42:47.434Z,99406.42
2018-04-08T12:45:13.272Z,99401.35
2018-04-08T12:47:38.817Z,99401.89
2018-04-08T12:50:04.397Z,99392.11
2018-04-08T12:52:30.133Z,99395.32
2018-04-08T12:54:55.765Z,99393.67
2018-04-08T12:57:21.347Z,99382.77
2018-04-08T12:59:47.282Z,99382.08
2018-04-08T13:02:12.910Z,99375.31
2018-04-08T13:04:38.464Z,99374.74
2018-04-08T13:07:04.204Z,99372.08
2018-04-08T13:09:29.788Z,99365.31
2018-04-08T13:11:55.369Z,99359.30
2018-04-08T13:14:21.076Z,99366.58
2018-04-08T13:16:46.646Z,99354.48
2018-04-08T13:19:12.279Z,99356.57
2018-04-08T13:21:38.060Z,99346.97
2018-04-08T13:24:03.661Z,99355.76
2018-04-08T13:26:29.239Z,99352.98
2018-04-08T13:28:55.106Z,99336.75
2018-04-08T13:31:20.649Z,99328.98
2018-04-08T13:33:46.209Z,99327.77
2018-04-08T13:36:12.122Z,99324.55
2018-04-08T13:38:37.981Z,99324.30
2018-04-08T13:41:03.798Z,99324.64
2018-04-08T13:43:29.504Z,99316.69
2018-04-08T13:45:55.056Z,99317.74
2018-04-08T13:48:20.617Z,99319.38
2018-04-08T13:50:46.392Z,99316.30
2018-04-08T13:53:11.927Z,99316.17
2018-04-08T13:55:37.503Z,99315.44
2018-04-08T13:58:03.270Z,99309.05
2018-04-08T14:00:28.814Z,99309.05
2018-04-08T14:02:54.363Z,99313.08
2018-04-08T14:05:20.251Z,99311.58
2018-04-08T14:07:45.839Z,99311.30
2018-04-08T14:10:11.391Z,99303.41
2018-04-08T14:12:37.267Z,99300.31
2018-04-08T14:15:02.801Z,99307.98
2018-04-08T14:17:28.347Z,99298.60
2018-04-08T14:19:54.116Z,99298.78
2018-04-08T14:22:19.647Z,99297.20
2018-04-08T14:24:45.381Z,99289.67
2018-04-08T14:27:11.077Z,99283.35
2018-04-08T14:29:36.691Z,99283.63
2018-04-08T14:32:02.235Z,99278.95
2018-04-08T14:34:28.076Z,99274.63
2018-04-08T14:36:53.638Z,99271.69
2018-04-08T14:39:19.194Z,99268.97
2018-04-08T14:41:45.203Z,99260.92
2018-04-08T14:44:11.135Z,99266.97
2018-04-08T14:46:36.742Z,99256.86
2018-04-08T14:49:02.435Z,99255.75
2018-04-08T14:51:27.980Z,99250.17
2018-04-08T14:53:53.529Z,99248.52
2018-04-08T14:56:19.282Z,99258.97
2018-04-08T14:58:44.843Z,99247.09
2018-04-08T15:01:10.511Z,99247.09
2018-04-08T15:03:36.379Z,99251.81
2018-04-08T15:06:01.951Z,99251.45
2018-04-08T15:08:27.516Z,99250.42
2018-04-08T15:10:53.291Z,99247.95
2018-04-08T15:13:18.969Z,99248.28
2018-04-08T15:15:44.535Z,99246.28
2018-04-08T15:18:10.262Z,99235.70
2018-04-08T15:20:35.819Z,99234.02
2018-04-08T15:23:01.422Z,99232.91
2018-04-08T15:25:27.302Z,99241.84
2018-04-08T15:27:52.861Z,99236.41
2018-04-08T15:30:18.472Z,99239.52
2018-04-08T15:32:44.290Z,99228.19
2018-04-08T15:35:09.844Z,99227.84
2018-04-08T15:37:35.402Z,99226.53
2018-04-08T15:40:01.204Z,99227.98
2018-04-08T15:42:27.223Z,99227.43
2018-04-08T15:44:53.107Z,99231.86
2018-04-08T15:47:19.011Z,99230.78
2018-04-08T15:49:44.567Z,99236.54
2018-04-08T15:52:10.126Z,99229.90
2018-04-08T15:54:35.912Z,99230.58
2018-04-08T15:57:01.509Z,99232.58
2018-04-08T15:59:27.053Z,99230.18
2018-04-08T16:01:52.944Z,99228.49
2018-04-08T16:04:18.515Z,99234.16
2018-04-08T16:06:44.067Z,99232.70
2018-04-08T16:09:09.955Z,99236.73
2018-04-08T16:11:35.542Z,99235.25
2018-04-08T16:14:01.151Z,99231.84
2018-04-08T16:16:26.945Z,99231.27
2018-04-08T16:18:52.551Z,99239.28
2018-04-08T16:21:18.172Z,99234.38
2018-04-08T16:23:43.888Z,99239.44
2018-04-08T16:26:09.430Z,99236.83
2018-04-08T16:28:34.980Z,99231.13
2018-04-08T16:31:00.794Z,99237.14
2018-04-08T16:33:26.390Z,99239.47
2018-04-08T16:35:52.007Z,99243.49
2018-04-08T16:38:17.871Z,99248.33
2018-04-08T16:40:43.402Z,99251.14
2018-04-08T16:43:08.984Z,99256.73
2018-04-08T16:45:35.066Z,99256.97
2018-04-08T16:48:00.857Z,99254.53
2018-04-08T16:50:26.386Z,99261.78
2018-04-08T16:52:52.266Z,99259.11
2018-04-08T16:55:17.802Z,99255.77
2018-04-08T16:57:43.346Z,99267.34
2018-04-08T17:00:09.180Z,99265.69
2018-04-08T17:02:34.771Z,99264.38
2018-04-08T17:05:00.380Z,99275.16
2018-04-08T17:07:26.222Z,99267.00
2018-04-08T17:09:51.789Z,99270.46
2018-04-08T17:12:17.340Z,99276.22
2018-04-08T17:14:43.089Z,99278.89
2018-04-08T17:17:08.631Z,99272.14
2018-04-08T17:19:34.235Z,99268.22
2018-04-08T17:21:59.925Z,99270.00
2018-04-08T17:24:25.491Z,99269.50
2018-04-08T17:26:51.069Z,99263.19
2018-04-08T17:29:16.863Z,99258.77
2018-04-08T17:31:42.422Z,99262.33
2018-04-08T17:34:08.032Z,99255.61
2018-04-08T17:36:33.833Z,99264.14
2018-04-08T17:38:59.437Z,99266.81
2018-04-08T17:41:24.973Z,99268.52
2018-04-08T17:43:50.926Z,99267.16
2018-04-08T17:46:16.482Z,99270.49
2018-04-08T17:48:42.412Z,99271.81
2018-04-08T17:51:08.334Z,99275.80
2018-04-08T17:53:33.888Z,99269.87
2018-04-08T17:55:59.441Z,99274.28
2018-04-08T17:58:25.192Z,99277.55
2018-04-08T18:00:50.760Z,99282.13
2018-04-08T18:03:16.389Z,99286.22
2018-04-08T18:05:42.156Z,99286.75
2018-04-08T18:08:07.766Z,99295.81
2018-04-08T18:10:33.325Z,99296.07
2018-04-08T18:12:59.029Z,99292.08
2018-04-08T18:15:24.576Z,99300.23
2018-04-08T18:17:50.935Z,99297.89
2018-04-08T18:20:18.534Z,99291.64
2018-04-08T18:22:44.452Z,99295.28
2018-04-08T18:25:10.204Z,99300.55
2018-04-08T18:32:39.525Z,99307.98
2018-04-08T18:35:05.135Z,99308.92
2018-04-08T18:37:30.852Z,99307.34
2018-04-08T18:39:56.405Z,99305.17
2018-04-08T18:42:22.113Z,99312.30
2018-04-08T18:44:47.656Z,99313.27
2018-04-08T18:47:13.680Z,99315.88
2018-04-08T18:49:39.537Z,99312.39
2018-04-08T18:52:05.419Z,99317.58
2018-04-08T18:54:30.971Z,99315.31
2018-04-08T18:56:56.513Z,99311.49
2018-04-08T18:59:23.028Z,99314.11
2018-04-08T19:01:48.591Z,99313.69
2018-04-08T19:04:14.893Z,99318.66
2018-04-08T19:06:40.479Z,99321.75
2018-04-08T19:09:06.682Z,99309.37
2018-04-08T19:11:32.394Z,99312.96
2018-04-08T19:13:58.541Z,99315.16
2018-04-08T19:16:24.344Z,99316.45
2018-04-08T19:18:50.580Z,99320.70
2018-04-08T19:21:16.204Z,99312.66
2018-04-08T19:23:41.959Z,99316.13
2018-04-08T19:26:07.643Z,99316.62
2018-04-08T19:28:33.502Z,99319.50
2018-04-08T19:30:59.073Z,99313.25
2018-04-08T19:33:24.860Z,99311.15
2018-04-08T19:35:50.438Z,99308.23
2018-04-08T19:38:16.338Z,99312.94
2018-04-08T19:40:41.896Z,99305.73
2018-04-08T19:43:07.681Z,99308.03
2018-04-08T19:45:33.226Z,99313.27
2018-04-08T19:47:59.168Z,99309.36
2018-04-08T19:50:24.730Z,99312.80
2018-04-08T19:52:50.817Z,99317.54
2018-04-08T19:55:16.363Z,99311.38
2018-04-08T19:57:42.914Z,99314.30
2018-04-08T20:00:08.630Z,99312.75
2018-04-08T20:02:35.333Z,99320.47
2018-04-08T20:05:00.941Z,99316.63
2018-04-08T20:07:26.605Z,99315.74
2018-04-08T20:09:52.162Z,99312.47
2018-04-08T20:12:17.902Z,99314.16
2018-04-08T20:14:43.451Z,99309.80
2018-04-08T20:17:09.209Z,99315.37
2018-04-08T20:19:34.775Z,99312.38
2018-04-08T20:22:00.615Z,99309.94
2018-04-08T20:24:26.162Z,99312.66
2018-04-08T20:26:51.848Z,99307.86
2018-04-08T20:29:17.451Z,99304.92
2018-04-08T20:31:43.173Z,99296.41
2018-04-08T20:34:08.727Z,99302.25
2018-04-08T20:36:34.528Z,99308.31
2018-04-08T20:39:00.079Z,99301.88
2018-04-08T20:41:25.853Z,99304.09
2018-04-08T20:43:51.740Z,99302.25
2018-04-08T20:46:17.394Z,99301.57
2018-04-08T20:48:43.165Z,99294.09
2018-04-08T20:51:08.726Z,99282.64
2018-04-08T20:53:35.422Z,99290.58
2018-04-08T20:56:00.974Z,99289.96
2018-04-08T20:58:27.083Z,99294.61
2018-04-08T21:00:52.617Z,99285.55
2018-04-08T21:03:18.365Z,99294.23
2018-04-08T21:05:43.897Z,99286.64
2018-04-08T21:08:09.673Z,99285.02
2018-04-08T21:10:35.222Z,99293.44
2018-04-08T21:13:01.010Z,99288.16
2018-04-08T21:15:26.571Z,99286.38
2018-04-08T21:17:52.335Z,99290.20
2018-04-08T21:20:18.101Z,99283.24
2018-04-08T21:22:43.654Z,99287.75
2018-04-08T21:25:09.373Z,99284.80
2018-04-08T21:27:34.977Z,99270.84
2018-04-08T21:30:00.758Z,99279.45
2018-04-08T21:32:26.297Z,99280.72
2018-04-08T21:34:51.985Z,99277.17
2018-04-08T21:37:17.564Z,99279.27
2018-04-08T21:39:43.251Z,99272.32
2018-04-08T21:42:08.813Z,99270.80
2018-04-08T21:44:34.513Z,99272.73
2018-04-08T21:47:00.112Z,99271.50
2018-04-08T21:49:25.859Z,99262.63
2018-04-08T21:51:51.421Z,99263.08
2018-04-08T21:54:17.308Z,99253.73
2018-04-08T21:56:42.842Z,99257.58
2018-04-08T21:59:08.622Z,99265.64
2018-04-08T22:01:34.181Z,99264.97
2018-04-08T22:03:59.868Z,99266.31
2018-04-08T22:06:25.654Z,99259.19
2018-04-08T22:08:51.211Z,99260.33
2018-04-08T22:11:17.035Z,99268.92
2018-04-08T22:13:42.572Z,99264.17
2018-04-08T22:16:08.118Z,99267.74
2018-04-08T22:18:33.873Z,99268.86
2018-04-08T22:20:59.416Z,99262.80
2018-04-08T22:23:25.197Z,99264.02
2018-04-08T22:25:50.678Z,99267.92
2018-04-08T22:28:16.331Z,99266.72
2018-04-08T22:30:41.888Z,99270.86
2018-04-08T22:33:07.570Z,99280.50
2018-04-08T22:35:33.127Z,99278.02
2018-04-08T22:37:58.885Z,99282.78
2018-04-08T22:40:24.467Z,99274.98
2018-04-08T22:42:50.251Z,99279.72
2018-04-08T22:45:15.800Z,99281.97
2018-04-08T22:47:41.566Z,99278.11
2018-04-08T22:50:07.133Z,99278.97
2018-04-08T22:55:04.198Z,99282.94
2018-04-08T22:57:29.944Z,99285.81
2018-04-08T22:59:55.514Z,99284.13
2018-04-08T23:04:53.625Z,99284.66
2018-04-08T23:07:19.430Z,99282.64
2018-04-08T23:09:44.978Z,99290.12
2018-04-08T23:12:10.728Z,99292.93
2018-04-08T23:14:36.276Z,99285.07
2018-04-08T23:17:02.006Z,99286.75
2018-04-08T23:19:27.606Z,99284.86
2018-04-08T23:21:53.362Z,99285.30
2018-04-08T23:24:18.910Z,99282.60
2018-04-08T23:26:45.031Z,99276.30
2018-04-08T23:29:10.575Z,99264.14
2018-04-08T23:31:36.388Z,99259.82
2018-04-08T23:34:01.942Z,99261.37
2018-04-08T23:36:27.496Z,99253.94
2018-04-08T23:38:53.256Z,99255.49
2018-04-08T23:41:18.796Z,99250.78
2018-04-08T23:43:44.639Z,99248.85
2018-04-08T23:46:10.204Z,99250.00
2018-04-08T23:48:35.865Z,99247.66
2018-04-08T23:51:01.439Z,99250.77
2018-04-08T23:53:27.124Z,99245.25
2018-04-08T23:55:52.724Z,99253.15
2018-04-08T23:58:18.429Z,99261.78
